createdAt,value
2023-02-24T00:01:43.114Z,37.47
2023-02-24T00:04:13.363Z,33.70
2023-02-24T00:06:44.112Z,35.90
2023-02-24T00:09:12.660Z,34.33
2023-02-24T00:11:48.356Z,32.33
2023-02-24T00:14:17.040Z,33.03
2023-02-24T00:16:45.301Z,34.57
2023-02-24T00:19:18.232Z,31.30
2023-02-24T00:21:45.615Z,33.95
2023-02-24T00:24:12.678Z,34.65
2023-02-24T00:26:40.050Z,30.00
2023-02-24T00:29:11.273Z,29.85
2023-02-24T00:31:42.942Z,28.35
2023-02-24T00:34:12.677Z,27.98
2023-02-24T00:36:40.036Z,28.50
2023-02-24T00:39:11.786Z,25.75
2023-02-24T00:41:44.094Z,26.85
2023-02-24T00:44:13.648Z,29.02
2023-02-24T00:49:12.672Z,26.67
2023-02-24T00:51:41.848Z,25.55
2023-02-24T00:54:10.458Z,25.85
2023-02-24T00:56:37.278Z,24.33
2023-02-24T00:59:04.187Z,24.52
2023-02-24T01:01:33.440Z,25.27
2023-02-24T01:04:05.855Z,22.42
2023-02-24T01:06:34.228Z,22.35
2023-02-24T01:09:01.253Z,23.83
2023-02-24T01:11:54.046Z,24.23
2023-02-24T01:14:23.802Z,23.98
2023-02-24T01:16:51.256Z,20.10
2023-02-24T01:19:23.021Z,20.65
2023-02-24T01:21:55.276Z,20.88
2023-02-24T01:24:23.871Z,22.50
2023-02-24T01:26:51.087Z,20.15
2023-02-24T01:29:17.811Z,20.30
2023-02-24T01:31:45.532Z,20.42
2023-02-24T01:34:13.393Z,19.10
2023-02-24T01:36:45.042Z,18.52
2023-02-24T01:39:13.611Z,20.25
2023-02-24T01:41:43.952Z,18.77
2023-02-24T01:44:14.571Z,19.60
2023-02-24T01:46:48.108Z,15.65
2023-02-24T01:49:20.332Z,17.92
2023-02-24T01:51:49.442Z,21.20
2023-02-24T01:54:19.359Z,16.90
2023-02-24T01:56:50.358Z,16.52
2023-02-24T01:59:20.014Z,16.45
2023-02-24T02:01:48.132Z,16.77
2023-02-24T02:04:34.852Z,16.58
2023-02-24T02:07:02.447Z,18.73
2023-02-24T02:09:32.674Z,15.80
2023-02-24T02:11:59.866Z,21.08
2023-02-24T02:14:31.166Z,16.85
2023-02-24T02:17:21.220Z,14.60
2023-02-24T02:20:15.968Z,15.20
2023-02-24T02:22:51.653Z,13.52
2023-02-24T02:25:38.744Z,13.38
2023-02-24T02:28:40.574Z,14.15
2023-02-24T02:31:13.335Z,14.35
2023-02-24T02:33:58.378Z,13.43
2023-02-24T02:36:43.636Z,12.82
2023-02-24T02:39:43.347Z,13.98
2023-02-24T03:06:24.907Z,11.32
2023-02-24T03:09:16.024Z,11.10
2023-02-24T03:11:52.972Z,12.10
2023-02-24T03:14:25.117Z,10.82
2023-02-24T03:16:54.094Z,10.52
2023-02-24T03:19:27.279Z,10.75
2023-02-24T03:22:15.645Z,10.30
2023-02-24T03:24:44.261Z,11.55
2023-02-24T03:27:27.656Z,9.25
2023-02-24T03:30:01.967Z,9.05
2023-02-24T03:32:44.140Z,9.27
2023-02-24T03:35:13.900Z,10.60
2023-02-24T03:37:41.195Z,11.73
2023-02-24T03:40:12.081Z,10.07
2023-02-24T03:42:43.422Z,10.35
2023-02-24T03:45:10.957Z,11.02
2023-02-24T03:47:37.943Z,9.05
2023-02-24T03:50:13.011Z,8.48
2023-02-24T03:53:01.632Z,9.27
2023-02-24T03:55:37.787Z,8.23
2023-02-24T03:58:12.710Z,7.88
2023-02-24T04:01:10.768Z,10.10
2023-02-24T04:04:07.448Z,9.07
2023-02-24T04:06:51.600Z,9.35
2023-02-24T04:09:39.151Z,10.85
2023-02-24T04:12:27.047Z,7.43
2023-02-24T04:15:20.457Z,9.07
2023-02-24T04:17:53.435Z,6.90
2023-02-24T04:20:24.702Z,8.65
2023-02-24T04:23:08.660Z,7.68
2023-02-24T04:25:37.377Z,7.97
2023-02-24T04:28:08.052Z,9.27
2023-02-24T04:30:40.907Z,7.10
2023-02-24T04:33:08.217Z,8.27
2023-02-24T04:35:36.049Z,7.57
2023-02-24T04:38:03.213Z,10.20
2023-02-24T04:40:31.146Z,8.93
2023-02-24T04:42:57.820Z,8.25
2023-02-24T04:45:30.629Z,8.98
2023-02-24T04:48:01.120Z,6.75
2023-02-24T04:50:34.662Z,7.25
2023-02-24T04:53:09.297Z,8.77
2023-02-24T04:55:42.357Z,7.70
2023-02-24T04:58:14.266Z,5.82
2023-02-24T05:00:41.937Z,8.80
2023-02-24T05:03:11.855Z,6.25
2023-02-24T05:05:38.609Z,7.13
2023-02-24T05:08:10.595Z,6.43
2023-02-24T05:10:41.778Z,7.45
2023-02-24T05:13:09.436Z,6.50
2023-02-24T05:15:40.627Z,6.20
2023-02-24T05:18:14.004Z,7.45
2023-02-24T05:21:03.021Z,6.55
2023-02-24T05:23:33.926Z,5.28
2023-02-24T05:26:02.598Z,5.90
2023-02-24T05:28:31.751Z,5.40
2023-02-24T05:31:11.237Z,5.38
2023-02-24T05:36:08.835Z,5.78
2023-02-24T05:38:38.133Z,5.75
2023-02-24T05:43:35.065Z,8.25
2023-02-24T05:46:04.585Z,8.30
2023-02-24T05:51:05.266Z,5.80
2023-02-24T05:53:32.069Z,7.70
2023-02-24T05:56:01.543Z,6.35
2023-02-24T05:58:29.188Z,7.32
2023-02-24T06:00:56.345Z,4.75
2023-02-24T06:03:31.082Z,5.90
2023-02-24T06:06:08.946Z,5.10
2023-02-24T06:08:42.490Z,5.75
2023-02-24T06:11:10.414Z,6.82
2023-02-24T06:13:40.020Z,5.47
2023-02-24T06:16:07.349Z,6.50
2023-02-24T06:18:34.230Z,4.63
2023-02-24T06:21:04.586Z,5.43
2023-02-24T06:23:31.287Z,5.43
2023-02-24T06:26:02.022Z,6.07
2023-02-24T06:28:28.680Z,7.55
2023-02-24T06:30:56.308Z,5.55
2023-02-24T06:33:26.449Z,4.95
2023-02-24T06:35:53.440Z,4.57
2023-02-24T06:38:20.234Z,7.07
2023-02-24T06:40:47.575Z,6.22
2023-02-24T06:43:14.208Z,4.20
2023-02-24T06:45:41.403Z,4.60
2023-02-24T06:48:09.137Z,5.95
2023-02-24T06:50:35.842Z,4.88
2023-02-24T06:53:02.772Z,4.45
2023-02-24T06:55:29.636Z,6.18
2023-02-24T06:58:04.709Z,4.25
2023-02-24T07:00:39.680Z,5.40
2023-02-24T07:03:15.243Z,4.22
2023-02-24T07:05:50.484Z,4.00
2023-02-24T07:08:19.974Z,5.35
2023-02-24T07:13:19.255Z,3.72
2023-02-24T07:15:49.418Z,5.00
2023-02-24T07:18:17.641Z,4.88
2023-02-24T07:20:46.645Z,4.03
2023-02-24T07:23:15.450Z,5.82
2023-02-24T07:25:46.466Z,4.05
2023-02-24T07:28:14.318Z,4.25
2023-02-24T07:30:41.881Z,4.45
2023-02-24T07:33:09.229Z,4.55
2023-02-24T07:35:36.036Z,6.47
2023-02-24T07:38:05.554Z,5.40
2023-02-24T07:40:33.833Z,5.03
2023-02-24T07:43:01.525Z,5.72
2023-02-24T07:45:29.746Z,5.80
2023-02-24T07:47:57.217Z,7.47
2023-02-24T07:50:24.260Z,5.43
2023-02-24T07:52:51.797Z,5.63
2023-02-24T07:55:18.684Z,5.25
2023-02-24T07:57:48.424Z,4.40
2023-02-24T08:00:19.738Z,6.32
2023-02-24T08:02:49.028Z,7.95
2023-02-24T08:05:19.165Z,3.78
2023-02-24T08:07:49.881Z,8.25
2023-02-24T08:10:26.440Z,6.78
2023-02-24T08:12:56.184Z,4.97
2023-02-24T08:15:24.819Z,6.00
2023-02-24T08:18:00.629Z,9.50
2023-02-24T08:20:58.897Z,4.88
2023-02-24T08:23:25.770Z,5.78
2023-02-24T08:25:53.716Z,4.43
2023-02-24T08:28:20.495Z,5.25
2023-02-24T08:30:51.154Z,8.27
2023-02-24T08:33:22.409Z,5.38
2023-02-24T08:36:02.107Z,4.70
2023-02-24T08:38:42.072Z,4.75
2023-02-24T08:41:18.460Z,6.78
2023-02-24T08:43:46.529Z,5.35
2023-02-24T08:46:21.352Z,5.30
2023-02-24T08:48:51.137Z,5.63
2023-02-24T08:51:43.645Z,7.22
2023-02-24T08:54:27.021Z,5.65
2023-02-24T08:56:56.304Z,5.47
2023-02-24T08:59:38.562Z,4.45
2023-02-24T09:02:18.498Z,6.20
2023-02-24T09:04:57.830Z,5.85
2023-02-24T09:09:56.898Z,5.10
2023-02-24T09:12:26.708Z,5.63
2023-02-24T09:14:56.924Z,7.25
2023-02-24T09:17:49.895Z,4.47
2023-02-24T09:20:35.731Z,5.20
2023-02-24T09:23:04.247Z,4.65
2023-02-24T09:25:44.040Z,6.60
2023-02-24T09:28:27.449Z,6.88
2023-02-24T09:30:58.673Z,6.65
2023-02-24T09:33:25.421Z,6.22
2023-02-24T09:36:12.976Z,6.18
2023-02-24T09:39:00.464Z,4.43
2023-02-24T09:41:54.864Z,3.78
2023-02-24T09:44:24.310Z,5.30
2023-02-24T09:47:19.887Z,3.90
2023-02-24T09:49:59.244Z,6.60
2023-02-24T09:52:41.814Z,7.38
2023-02-24T09:55:35.756Z,6.00
2023-02-24T09:58:18.609Z,4.70
2023-02-24T10:01:20.976Z,6.05
2023-02-24T10:03:48.399Z,4.45
2023-02-24T10:06:20.595Z,4.25
2023-02-24T10:09:14.439Z,6.10
2023-02-24T10:12:03.951Z,5.43
2023-02-24T10:17:23.054Z,5.57
2023-02-24T10:20:00.112Z,5.22
2023-02-24T10:22:50.867Z,6.78
2023-02-24T10:25:42.080Z,3.92
2023-02-24T10:28:20.250Z,4.68
2023-02-24T10:31:24.796Z,5.00
2023-02-24T10:34:06.306Z,4.28
2023-02-24T10:36:36.854Z,5.57
2023-02-24T10:39:30.351Z,6.63
2023-02-24T10:42:17.650Z,5.78
2023-02-24T10:45:01.315Z,5.63
2023-02-24T10:47:31.214Z,5.70
2023-02-24T10:52:51.978Z,5.45
2023-02-24T10:55:45.021Z,5.00
2023-02-24T10:58:28.340Z,3.78
2023-02-24T11:01:18.527Z,4.75
2023-02-24T11:04:01.991Z,4.28
2023-02-24T11:06:40.985Z,4.65
2023-02-24T11:09:31.869Z,4.82
2023-02-24T11:12:22.496Z,3.95
2023-02-24T11:15:12.624Z,4.95
2023-02-24T11:17:51.094Z,3.88
2023-02-24T11:20:48.014Z,5.07
2023-02-24T11:23:33.477Z,4.63
2023-02-24T11:26:04.719Z,4.57
2023-02-24T11:28:49.421Z,4.10
2023-02-24T11:31:44.188Z,4.32
2023-02-24T11:34:30.140Z,4.55
2023-02-24T11:37:14.518Z,10.23
2023-02-24T11:40:05.681Z,6.07
2023-02-24T11:43:04.748Z,4.65
2023-02-24T11:45:46.581Z,2.72
2023-02-24T11:48:19.792Z,4.15
2023-02-24T11:50:55.793Z,4.63
2023-02-24T11:53:30.022Z,4.22
2023-02-24T11:56:28.194Z,7.72
2023-02-24T11:59:21.083Z,6.43
2023-02-24T12:02:03.819Z,3.15
2023-02-24T12:04:58.345Z,6.47
2023-02-24T12:07:32.412Z,4.95
2023-02-24T12:10:24.261Z,4.30
2023-02-24T12:13:06.378Z,3.60
2023-02-24T12:15:46.751Z,2.85
2023-02-24T12:18:27.600Z,3.70
2023-02-24T12:21:06.734Z,3.15
2023-02-24T12:23:39.890Z,3.63
2023-02-24T12:26:13.454Z,3.95
2023-02-24T12:28:58.989Z,4.43
2023-02-24T12:31:43.615Z,4.13
2023-02-24T12:34:48.856Z,3.67
2023-02-24T12:37:33.495Z,2.38
2023-02-24T12:40:18.538Z,4.95
2023-02-24T12:43:09.939Z,2.85
2023-02-24T12:45:59.761Z,2.70
2023-02-24T12:48:44.811Z,7.07
2023-02-24T12:51:24.819Z,3.83
2023-02-24T12:54:09.832Z,3.75
2023-02-24T12:57:23.021Z,4.32
2023-02-24T12:59:50.907Z,4.40
2023-02-24T13:02:40.873Z,3.60
2023-02-24T13:05:19.714Z,3.80
2023-02-24T13:08:23.185Z,4.18
2023-02-24T13:11:16.439Z,3.50
2023-02-24T13:13:48.907Z,2.80
2023-02-24T13:16:15.602Z,5.63
2023-02-24T13:18:42.534Z,3.47
2023-02-24T13:21:29.582Z,2.28
2023-02-24T13:24:00.702Z,3.20
2023-02-24T13:26:31.354Z,3.33
2023-02-24T13:29:13.090Z,3.20
2023-02-24T13:31:44.145Z,3.90
2023-02-24T13:34:28.779Z,2.40
2023-02-24T13:36:55.530Z,5.65
2023-02-24T13:39:41.509Z,1.83
2023-02-24T13:42:38.733Z,3.53
2023-02-24T13:45:18.890Z,2.45
2023-02-24T13:48:01.582Z,2.88
2023-02-24T13:50:54.505Z,1.83
2023-02-24T13:53:31.623Z,2.90
2023-02-24T13:56:16.754Z,4.30
2023-02-24T13:59:05.537Z,3.95
2023-02-24T14:01:49.643Z,3.38
2023-02-24T14:04:19.329Z,3.65
2023-02-24T14:06:49.964Z,4.93
2023-02-24T14:09:22.663Z,3.75
2023-02-24T14:11:55.089Z,5.78
2023-02-24T14:14:22.569Z,4.80
2023-02-24T14:16:50.983Z,4.28
2023-02-24T14:19:19.021Z,4.65
2023-02-24T14:21:54.037Z,4.85
2023-02-24T14:24:21.108Z,5.30
2023-02-24T14:26:52.037Z,5.35
2023-02-24T14:29:32.072Z,4.63
2023-02-24T14:32:00.427Z,4.70
2023-02-24T14:34:30.497Z,4.22
2023-02-24T14:37:03.651Z,5.10
2023-02-24T14:39:31.955Z,4.20
2023-02-24T14:42:07.648Z,5.35
2023-02-24T14:44:41.579Z,4.07
2023-02-24T14:47:11.421Z,4.50
2023-02-24T14:49:38.538Z,4.80
2023-02-24T14:52:16.973Z,5.43
2023-02-24T14:54:46.603Z,6.45
2023-02-24T14:57:23.640Z,5.90
2023-02-24T14:59:58.744Z,4.68
2023-02-24T15:02:33.125Z,4.45
2023-02-24T15:05:00.451Z,3.20
2023-02-24T15:07:32.260Z,3.70
2023-02-24T15:10:00.289Z,5.00
2023-02-24T15:12:50.141Z,3.97
2023-02-24T15:15:26.966Z,3.47
2023-02-24T15:18:04.389Z,3.72
2023-02-24T15:20:37.545Z,4.70
2023-02-24T15:23:04.587Z,5.53
2023-02-24T15:25:43.650Z,4.15
2023-02-24T15:28:35.148Z,6.90
2023-02-24T15:31:02.172Z,4.45
2023-02-24T15:33:37.423Z,3.60
2023-02-24T15:36:09.581Z,4.93
2023-02-24T15:38:39.330Z,5.32
2023-02-24T15:41:08.822Z,4.40
2023-02-24T15:46:21.879Z,4.15
2023-02-24T15:48:51.238Z,3.80
2023-02-24T15:51:45.293Z,4.15
2023-02-24T15:54:29.486Z,3.88
2023-02-24T15:57:00.484Z,2.85
2023-02-24T15:59:28.472Z,3.72
2023-02-24T16:01:55.532Z,5.25
2023-02-24T16:04:23.519Z,3.65
2023-02-24T16:06:54.811Z,3.47
2023-02-24T16:09:37.050Z,3.65
2023-02-24T16:12:39.490Z,3.55
2023-02-24T16:15:14.455Z,3.55
2023-02-24T16:17:42.613Z,4.25
2023-02-24T16:20:27.444Z,3.97
2023-02-24T16:22:56.327Z,2.95
2023-02-24T16:25:24.287Z,3.38
2023-02-24T16:27:57.170Z,3.85
2023-02-24T16:30:26.781Z,3.75
2023-02-24T16:32:53.712Z,3.58
2023-02-24T16:35:20.534Z,3.58
2023-02-24T16:37:48.255Z,2.47
2023-02-24T16:40:24.794Z,4.43
2023-02-24T16:42:52.976Z,2.78
2023-02-24T16:45:20.879Z,3.53
2023-02-24T16:47:49.310Z,3.78
2023-02-24T16:50:26.583Z,2.90
2023-02-24T16:52:53.214Z,6.57
2023-02-24T16:55:19.853Z,2.97
2023-02-24T16:57:46.529Z,2.58
2023-02-24T17:00:15.720Z,3.00
2023-02-24T17:02:45.489Z,3.10
2023-02-24T17:05:17.865Z,3.80
2023-02-24T17:07:44.718Z,4.40
2023-02-24T17:10:11.810Z,3.05
2023-02-24T17:12:38.498Z,2.65
2023-02-24T17:15:06.064Z,5.22
2023-02-24T17:17:32.777Z,2.70
2023-02-24T17:19:59.533Z,6.88
2023-02-24T17:22:26.484Z,4.28
2023-02-24T17:24:53.264Z,2.92
2023-02-24T17:27:20.108Z,3.47
2023-02-24T17:29:46.900Z,2.25
2023-02-24T17:32:13.783Z,2.58
2023-02-24T17:34:40.597Z,2.22
2023-02-24T17:37:07.427Z,2.30
2023-02-24T17:39:34.206Z,2.30
2023-02-24T17:42:02.261Z,2.70
2023-02-24T17:44:28.993Z,2.97
2023-02-24T17:46:55.705Z,2.95
2023-02-24T17:49:22.803Z,3.20
2023-02-24T17:51:49.489Z,3.63
2023-02-24T17:54:16.131Z,2.72
2023-02-24T17:56:42.871Z,3.65
2023-02-24T17:59:09.474Z,3.97
2023-02-24T18:01:36.120Z,3.70
2023-02-24T18:04:02.816Z,2.80
2023-02-24T18:06:29.481Z,3.50
2023-02-24T18:09:14.757Z,4.28
2023-02-24T18:11:41.684Z,2.35
2023-02-24T18:14:08.474Z,2.95
2023-02-24T18:16:35.081Z,2.80
2023-02-24T18:19:01.785Z,2.15
2023-02-24T18:21:28.686Z,3.30
2023-02-24T18:23:55.471Z,2.75
2023-02-24T18:26:24.151Z,2.28
2023-02-24T18:28:54.495Z,2.67
2023-02-24T18:31:24.066Z,2.17
2023-02-24T18:33:51.427Z,2.60
2023-02-24T18:36:18.970Z,2.08
2023-02-24T18:38:45.743Z,3.72
2023-02-24T18:41:18.488Z,2.10
2023-02-24T18:43:48.968Z,2.72
2023-02-24T18:46:16.927Z,3.10
2023-02-24T18:48:46.794Z,2.42
2023-02-24T18:51:15.525Z,2.42
2023-02-24T18:53:42.395Z,2.40
2023-02-24T18:56:16.792Z,3.47
2023-02-24T18:58:45.646Z,3.10
2023-02-24T19:01:20.475Z,3.10
2023-02-24T19:03:48.218Z,2.72
2023-02-24T19:06:15.736Z,3.38
2023-02-24T19:08:42.543Z,2.67
2023-02-24T19:11:13.396Z,2.80
2023-02-24T19:13:40.102Z,3.10
2023-02-24T19:16:08.118Z,2.58
2023-02-24T19:18:35.230Z,3.08
2023-02-24T19:21:04.269Z,3.03
2023-02-24T19:23:31.198Z,2.47
2023-02-24T19:25:57.934Z,2.88
2023-02-24T19:28:24.716Z,3.10
2023-02-24T19:30:51.848Z,2.47
2023-02-24T19:33:18.665Z,3.75
2023-02-24T19:35:45.502Z,2.92
2023-02-24T19:38:18.171Z,3.15
2023-02-24T19:40:45.338Z,3.30
2023-02-24T19:43:11.926Z,2.67
2023-02-24T19:45:42.447Z,4.45
2023-02-24T19:48:10.369Z,4.03
2023-02-24T19:50:41.500Z,4.40
2023-02-24T19:53:08.906Z,3.20
2023-02-24T19:55:35.591Z,3.95
2023-02-24T19:58:02.286Z,2.53
2023-02-24T20:00:29.299Z,3.55
2023-02-24T20:02:56.405Z,3.90
2023-02-24T20:05:24.789Z,2.80
2023-02-24T20:07:51.473Z,4.15
2023-02-24T20:10:18.677Z,3.35
2023-02-24T20:12:45.678Z,3.95
2023-02-24T20:15:12.691Z,4.22
2023-02-24T20:17:39.643Z,3.08
2023-02-24T20:20:07.008Z,4.40
2023-02-24T20:22:33.825Z,5.45
2023-02-24T20:25:00.529Z,5.00
2023-02-24T20:27:27.232Z,4.38
2023-02-24T20:29:56.484Z,6.40
2023-02-24T20:32:23.550Z,2.97
2023-02-24T20:34:50.904Z,5.53
2023-02-24T20:37:17.835Z,3.17
2023-02-24T20:39:44.974Z,5.32
2023-02-24T20:42:12.389Z,6.32
2023-02-24T20:44:39.329Z,6.43
2023-02-24T20:47:06.080Z,4.97
2023-02-24T20:49:33.068Z,4.47
2023-02-24T20:51:59.896Z,3.67
2023-02-24T20:54:29.501Z,2.85
2023-02-24T20:56:56.080Z,3.25
2023-02-24T20:59:22.750Z,3.65
2023-02-24T21:01:50.605Z,4.10
2023-02-24T21:04:20.657Z,3.50
2023-02-24T21:06:48.151Z,5.40
2023-02-24T21:09:16.000Z,2.95
2023-02-24T21:11:42.771Z,4.57
2023-02-24T21:14:14.757Z,3.60
2023-02-24T21:16:41.603Z,4.50
2023-02-24T21:19:08.592Z,4.45
2023-02-24T21:21:35.540Z,4.30
2023-02-24T21:24:02.366Z,3.75
2023-02-24T21:26:29.555Z,4.30
2023-02-24T21:28:57.852Z,4.65
2023-02-24T21:31:25.441Z,5.27
2023-02-24T21:33:53.267Z,4.30
2023-02-24T21:36:21.743Z,4.65
2023-02-24T21:38:48.954Z,2.67
2023-02-24T21:41:16.341Z,3.17
2023-02-24T21:43:44.344Z,2.85
2023-02-24T21:46:13.410Z,3.13
2023-02-24T21:48:40.893Z,3.83
2023-02-24T21:51:11.183Z,3.15
2023-02-24T21:53:39.672Z,3.35
2023-02-24T21:56:16.580Z,3.67
2023-02-24T21:58:49.127Z,2.80
2023-02-24T22:01:20.778Z,4.65
2023-02-24T22:03:47.719Z,3.22
2023-02-24T22:06:17.587Z,3.42
2023-02-24T22:08:45.634Z,3.28
2023-02-24T22:11:15.202Z,4.07
2023-02-24T22:13:43.371Z,3.67
2023-02-24T22:16:16.023Z,4.10
2023-02-24T22:18:42.881Z,2.10
2023-02-24T22:21:12.575Z,3.25
2023-02-24T22:23:40.057Z,3.85
2023-02-24T22:26:09.253Z,2.25
2023-02-24T22:28:38.572Z,2.75
2023-02-24T22:31:07.359Z,2.05
2023-02-24T22:33:36.233Z,3.38
2023-02-24T22:36:08.816Z,2.97
2023-02-24T22:38:37.224Z,2.63
2023-02-24T22:41:07.098Z,3.15
2023-02-24T22:43:34.417Z,1.77
2023-02-24T22:46:05.075Z,3.10
2023-02-24T22:48:34.742Z,2.92
2023-02-24T22:51:03.986Z,5.25
2023-02-24T22:53:32.188Z,2.88
2023-02-24T22:55:59.579Z,3.13
2023-02-24T22:58:27.161Z,4.63
2023-02-24T23:00:54.800Z,3.95
2023-02-24T23:03:25.460Z,3.53
2023-02-24T23:06:07.931Z,2.65
2023-02-24T23:08:38.317Z,3.90
2023-02-24T23:11:06.427Z,3.50
2023-02-24T23:13:36.609Z,3.65
2023-02-24T23:16:03.923Z,3.15
2023-02-24T23:18:32.518Z,3.50
2023-02-24T23:21:03.220Z,2.47
2023-02-24T23:23:30.893Z,3.10
2023-02-24T23:25:57.941Z,3.72
2023-02-24T23:28:26.038Z,3.42
2023-02-24T23:30:53.772Z,2.58
2023-02-24T23:33:21.619Z,4.13
2023-02-24T23:35:49.040Z,5.20
2023-02-24T23:38:16.314Z,3.50
2023-02-24T23:40:50.150Z,2.85
2023-02-24T23:43:18.048Z,3.22
2023-02-24T23:45:45.233Z,3.78
2023-02-24T23:48:14.330Z,4.20
2023-02-24T23:50:42.788Z,2.40
2023-02-24T23:53:10.130Z,2.90
2023-02-24T23:55:40.099Z,2.58
2023-02-24T23:58:07.707Z,2.28
